Time;durP1;ratioP1;P1;durP2;ratioP2;P2;SDS_P1;SDS_P2;PMS_P1;PMS_P2;Temp;Humidity;BMP_temperature;BMP_pressure;BME280_temperature;BME280_humidity;BME280_pressure;Samples;Min_cycle;Max_cycle;Signal;HPM_P1;HPM_P2
2023/08/27 00:01:08;;;;;;;6.93;2.92;;;;;;;-147.95;100.00;58458.38;5067032;28;20057;-83
2023/08/27 00:03:33;;;;;;;3.30;2.95;;;;;;;-147.95;100.00;58458.38;5068902;28;20033;-82
2023/08/27 00:05:58;;;;;;;3.50;3.20;;;;;;;-147.95;100.00;58458.38;5087933;28;20089;-82
2023/08/27 00:08:24;;;;;;;6.50;3.10;;;;;;;-147.95;100.00;58458.38;5082991;28;20029;-82
2023/08/27 00:10:49;;;;;;;3.88;2.97;;;;;;;-147.95;100.00;58458.38;5081436;28;20402;-82
2023/08/27 00:13:15;;;;;;;6.00;3.08;;;;;;;-147.95;100.00;58458.38;5076341;28;20036;-81
2023/08/27 00:15:46;;;;;;;6.90;4.03;;;;;;;-147.95;100.00;58458.38;5067290;28;20081;-82
2023/08/27 00:18:12;;;;;;;6.10;4.20;;;;;;;-147.95;100.00;58458.38;5067440;28;20028;-81
2023/08/27 00:20:39;;;;;;;7.00;4.03;;;;;;;-147.95;100.00;58458.38;5067467;28;20066;-83
2023/08/27 00:23:05;;;;;;;6.40;3.33;;;;;;;-147.95;100.00;58458.38;5086853;28;20066;-83
2023/08/27 00:25:31;;;;;;;3.58;2.60;;;;;;;-147.95;100.00;58458.38;5088485;28;20073;-82
2023/08/27 00:27:56;;;;;;;3.80;2.60;;;;;;;-147.95;100.00;58458.38;5083846;28;20535;-83
2023/08/27 00:30:21;;;;;;;5.25;2.70;;;;;;;-147.95;100.00;58458.38;5066443;28;20028;-79
2023/08/27 00:32:47;;;;;;;4.53;2.20;;;;;;;-147.95;100.00;58458.38;5067180;28;20039;-79
2023/08/27 00:35:12;;;;;;;4.32;2.00;;;;;;;-147.95;100.00;58458.38;5065924;28;20035;-79
2023/08/27 00:37:38;;;;;;;3.70;1.73;;;;;;;-147.95;100.00;58458.38;5081287;28;20085;-80
2023/08/27 00:40:04;;;;;;;4.53;1.40;;;;;;;-147.95;100.00;58458.38;5081859;28;20020;-80
2023/08/27 00:42:29;;;;;;;1.77;0.95;;;;;;;-147.95;100.00;58458.38;5054829;28;20028;-79
2023/08/27 00:44:55;;;;;;;2.75;1.20;;;;;;;-147.95;100.00;58458.38;5082468;28;20389;-80
2023/08/27 00:47:20;;;;;;;2.70;1.30;;;;;;;-147.95;100.00;58458.38;5082665;28;20027;-80
2023/08/27 00:49:46;;;;;;;2.33;1.00;;;;;;;-147.95;100.00;58458.38;5087551;28;20028;-79
2023/08/27 00:52:13;;;;;;;2.85;1.17;;;;;;;-147.95;100.00;58458.38;5087945;28;20051;-79
2023/08/27 00:54:40;;;;;;;2.95;1.27;;;;;;;-147.95;100.00;58458.38;5085532;28;20448;-80
2023/08/27 00:57:06;;;;;;;1.90;1.13;;;;;;;-147.95;100.00;58458.38;5074297;28;20036;-79
2023/08/27 00:59:33;;;;;;;1.60;1.25;;;;;;;-147.95;100.00;58458.38;5056853;28;20501;-79
2023/08/27 01:01:59;;;;;;;3.35;1.20;;;;;;;-147.95;100.00;58458.38;5089372;28;20112;-79
2023/08/27 01:04:24;;;;;;;2.45;1.30;;;;;;;-147.95;100.00;58458.38;5089870;28;20025;-79
2023/08/27 01:06:50;;;;;;;3.38;1.10;;;;;;;-147.95;100.00;58458.38;5070480;28;20071;-79
2023/08/27 01:09:41;;;;;;;1.52;1.10;;;;;;;-147.95;100.00;58458.38;5082324;28;20029;-79
2023/08/27 01:12:19;;;;;;;3.20;1.60;;;;;;;-147.95;100.00;58458.38;5084262;28;20036;-80
2023/08/27 01:14:48;;;;;;;1.83;1.00;;;;;;;-147.95;100.00;58458.38;5083137;28;20046;-79
2023/08/27 01:17:17;;;;;;;3.03;1.30;;;;;;;-147.95;100.00;58458.38;5088492;28;20418;-79
2023/08/27 01:19:43;;;;;;;1.95;1.30;;;;;;;-147.95;100.00;58458.38;5088981;28;20020;-79
2023/08/27 01:22:08;;;;;;;2.65;1.42;;;;;;;-147.95;100.00;58458.38;5080014;28;20553;-79
2023/08/27 01:24:34;;;;;;;1.67;1.38;;;;;;;-147.95;100.00;58458.38;5089961;28;20523;-79
2023/08/27 01:27:13;;;;;;;2.08;1.50;;;;;;;-147.95;100.00;58458.38;5071133;28;20075;-79
2023/08/27 01:30:09;;;;;;;2.45;1.10;;;;;;;-147.95;100.00;58458.38;5088183;28;20032;-79
2023/08/27 01:32:51;;;;;;;3.35;1.30;;;;;;;-147.95;100.00;58458.38;5087992;28;20028;-79
2023/08/27 01:35:18;;;;;;;4.05;1.35;;;;;;;-147.95;100.00;58458.38;5086384;28;20046;-79
2023/08/27 01:37:44;;;;;;;3.38;1.40;;;;;;;-147.95;100.00;58458.38;5083906;28;20498;-78
2023/08/27 01:40:10;;;;;;;5.43;1.50;;;;;;;-147.95;100.00;58458.38;5088814;28;20047;-82
2023/08/27 01:42:35;;;;;;;3.97;1.98;;;;;;;-147.95;100.00;58458.38;5089214;28;20043;-82
2023/08/27 01:45:09;;;;;;;1.30;1.15;;;;;;;-147.95;100.00;58458.38;5084109;28;20045;-83
2023/08/27 01:47:34;;;;;;;2.25;1.77;;;;;;;-147.95;100.00;58458.38;5081876;28;20020;-83
2023/08/27 01:49:59;;;;;;;3.00;1.80;;;;;;;-147.95;100.00;58458.38;5068808;28;20039;-83
2023/08/27 01:52:25;;;;;;;2.72;1.83;;;;;;;-147.95;100.00;58458.38;5089367;28;20036;-82
2023/08/27 01:54:50;;;;;;;2.85;1.83;;;;;;;-147.95;100.00;58458.38;5067850;28;20067;-82
2023/08/27 01:57:16;;;;;;;6.63;2.03;;;;;;;-147.95;100.00;58458.38;5068879;28;20048;-82
2023/08/27 01:59:41;;;;;;;2.88;2.20;;;;;;;-147.95;100.00;58458.38;5068877;28;20024;-82
2023/08/27 02:02:06;;;;;;;3.17;2.13;;;;;;;-147.95;100.00;58458.38;5087792;28;20033;-83
2023/08/27 02:04:32;;;;;;;3.17;2.15;;;;;;;-147.95;100.00;58458.38;5087716;28;20068;-82
2023/08/27 02:06:57;;;;;;;3.40;1.90;;;;;;;-147.95;100.00;58458.38;5068770;28;20028;-83
2023/08/27 02:09:23;;;;;;;3.10;1.95;;;;;;;-147.95;100.00;58458.38;5090587;28;20059;-82
2023/08/27 02:11:49;;;;;;;3.10;2.25;;;;;;;-147.95;100.00;58458.38;5086189;28;20067;-83
2023/08/27 02:14:15;;;;;;;5.43;1.85;;;;;;;-147.95;100.00;58458.38;5088239;28;20024;-83
2023/08/27 02:16:40;;;;;;;7.00;2.53;;;;;;;-147.95;100.00;58458.38;5083092;28;20086;-83
2023/08/27 02:19:06;;;;;;;2.58;1.65;;;;;;;-147.95;100.00;58458.38;5088695;28;20030;-83
2023/08/27 02:21:31;;;;;;;3.05;1.60;;;;;;;-147.95;100.00;58458.38;5085920;28;20024;-83
2023/08/27 02:23:56;;;;;;;2.55;1.90;;;;;;;-147.95;100.00;58458.38;5089786;28;20514;-83
2023/08/27 02:26:22;;;;;;;1.88;1.67;;;;;;;-147.95;100.00;58458.38;5056032;28;20486;-83
2023/08/27 02:28:47;;;;;;;3.70;1.77;;;;;;;-147.95;100.00;58458.38;5081937;28;20042;-83
2023/08/27 02:31:13;;;;;;;2.47;1.98;;;;;;;-147.95;100.00;58458.38;5086482;28;20028;-83
2023/08/27 02:33:40;;;;;;;2.83;1.90;;;;;;;-147.95;100.00;58458.38;5090005;28;20101;-82
2023/08/27 02:36:05;;;;;;;2.72;1.83;;;;;;;-147.95;100.00;58458.38;5082047;28;20021;-83
2023/08/27 02:38:32;;;;;;;3.10;2.20;;;;;;;-147.95;100.00;58458.38;5083829;28;20032;-82
2023/08/27 02:40:57;;;;;;;3.75;2.03;;;;;;;-147.95;100.00;58458.38;5078354;28;20051;-83
2023/08/27 02:43:23;;;;;;;7.32;2.00;;;;;;;-147.95;100.00;58458.38;5067923;28;20052;-83
2023/08/27 02:45:48;;;;;;;2.63;1.63;;;;;;;-147.95;100.00;58458.38;5083462;28;20547;-82
2023/08/27 02:48:14;;;;;;;3.17;1.90;;;;;;;-147.95;100.00;58458.38;5088369;28;20036;-82
2023/08/27 02:50:39;;;;;;;3.15;1.88;;;;;;;-147.95;100.00;58458.38;5085676;28;20039;-82
2023/08/27 02:53:05;;;;;;;3.25;1.65;;;;;;;-147.95;100.00;58458.38;5098490;28;20061;-83
2023/08/27 02:55:31;;;;;;;5.72;2.30;;;;;;;-147.95;100.00;58458.38;5083542;28;20618;-83
2023/08/27 02:57:58;;;;;;;3.13;2.30;;;;;;;-147.95;100.00;58458.38;5068394;28;20486;-82
2023/08/27 03:00:25;;;;;;;5.05;2.72;;;;;;;-147.95;100.00;58458.38;5082745;28;20394;-82
2023/08/27 03:02:50;;;;;;;5.85;2.65;;;;;;;-147.95;100.00;58458.38;5088066;28;20436;-82
2023/08/27 03:05:15;;;;;;;7.38;2.50;;;;;;;-147.95;100.00;58458.38;5088925;28;20034;-82
2023/08/27 03:07:42;;;;;;;3.67;2.88;;;;;;;-147.95;100.00;58458.38;5067347;28;20024;-83
2023/08/27 03:10:08;;;;;;;3.92;2.47;;;;;;;-147.95;100.00;58458.38;5089069;28;20118;-83
2023/08/27 03:12:34;;;;;;;9.15;2.55;;;;;;;-147.95;100.00;58458.38;5082154;28;20078;-83
2023/08/27 03:14:59;;;;;;;7.20;4.20;;;;;;;-147.95;100.00;58458.38;5069538;28;20119;-83
2023/08/27 03:17:25;;;;;;;4.30;2.95;;;;;;;-147.95;100.00;58458.38;5086154;28;20451;-83
2023/08/27 03:19:50;;;;;;;6.28;3.75;;;;;;;-147.95;100.00;58458.38;5084207;28;20501;-83
2023/08/27 03:22:16;;;;;;;4.35;2.92;;;;;;;-147.95;100.00;58458.38;5055574;28;20044;-83
2023/08/27 03:24:41;;;;;;;6.03;2.72;;;;;;;-147.95;100.00;58458.38;5089244;28;20155;-83
2023/08/27 03:27:07;;;;;;;5.05;3.88;;;;;;;-147.95;100.00;58458.38;5054034;28;20115;-83
2023/08/27 03:29:32;;;;;;;7.53;3.55;;;;;;;-147.95;100.00;58458.38;5085173;28;20061;-82
2023/08/27 03:31:58;;;;;;;7.07;4.00;;;;;;;-147.95;100.00;58458.38;5069848;28;20078;-83
2023/08/27 03:34:24;;;;;;;6.60;3.92;;;;;;;-147.95;100.00;58458.38;5088001;28;20028;-83
2023/08/27 03:36:49;;;;;;;7.45;4.00;;;;;;;-147.95;100.00;58458.38;5103339;28;20062;-83
2023/08/27 03:39:15;;;;;;;7.53;4.32;;;;;;;-147.95;100.00;58458.38;5071606;28;20114;-83
2023/08/27 03:41:40;;;;;;;6.72;4.25;;;;;;;-147.95;100.00;58458.38;5070838;28;20024;-82
2023/08/27 03:44:06;;;;;;;7.20;4.05;;;;;;;-147.95;100.00;58458.38;5070575;28;20041;-83
2023/08/27 03:46:31;;;;;;;7.25;4.68;;;;;;;-147.95;100.00;58458.38;5085714;28;20040;-82
2023/08/27 03:49:00;;;;;;;5.82;3.97;;;;;;;-147.95;100.00;58458.38;5072673;28;20031;-82
2023/08/27 03:51:28;;;;;;;9.35;4.82;;;;;;;-147.95;100.00;58458.38;5087405;28;20682;-83
2023/08/27 03:53:55;;;;;;;8.80;4.97;;;;;;;-147.95;100.00;58458.38;5101236;28;20079;-83
2023/08/27 03:56:21;;;;;;;7.72;4.82;;;;;;;-147.95;100.00;58458.38;5082454;28;20064;-83
2023/08/27 03:58:46;;;;;;;6.50;3.65;;;;;;;-147.95;100.00;58458.38;5088414;28;20509;-83
2023/08/27 04:01:12;;;;;;;8.88;4.03;;;;;;;-147.95;100.00;58458.38;5085428;28;20035;-83
2023/08/27 04:03:37;;;;;;;10.32;4.00;;;;;;;-147.95;100.00;58458.38;5081926;28;20024;-83
2023/08/27 04:06:06;;;;;;;6.57;3.70;;;;;;;-147.95;100.00;58458.38;5079750;28;20037;-83
2023/08/27 04:08:31;;;;;;;6.70;4.13;;;;;;;-147.95;100.00;58458.38;5086634;28;20027;-83
2023/08/27 04:10:57;;;;;;;11.60;4.53;;;;;;;-147.95;100.00;58458.38;5068945;28;20398;-83
2023/08/27 04:13:22;;;;;;;8.00;4.40;;;;;;;-147.95;100.00;58458.38;5067881;28;20490;-83
2023/08/27 04:16:06;;;;;;;5.93;3.70;;;;;;;-147.95;100.00;58458.38;5082296;28;20064;-82
2023/08/27 04:18:35;;;;;;;6.45;3.60;;;;;;;-147.95;100.00;58458.38;5077184;28;20028;-83
2023/08/27 04:21:01;;;;;;;6.68;3.65;;;;;;;-147.95;100.00;58458.38;5091276;28;20119;-82
2023/08/27 04:23:27;;;;;;;8.18;3.92;;;;;;;-147.95;100.00;58458.38;5080957;28;20020;-83
2023/08/27 04:25:53;;;;;;;9.13;4.00;;;;;;;-147.95;100.00;58458.38;5088203;28;20380;-82
2023/08/27 04:28:18;;;;;;;6.25;4.38;;;;;;;-147.95;100.00;58458.38;5081804;28;20042;-83
2023/08/27 04:30:47;;;;;;;10.95;4.45;;;;;;;-147.95;100.00;58458.38;5072164;28;20039;-83
2023/08/27 04:33:12;;;;;;;5.90;3.53;;;;;;;-147.95;100.00;58458.38;5084893;28;20032;-83
2023/08/27 04:35:38;;;;;;;7.47;3.75;;;;;;;-147.95;100.00;58458.38;5084306;28;20028;-83
2023/08/27 04:38:05;;;;;;;8.93;4.82;;;;;;;-147.95;100.00;58458.38;5092353;28;20047;-82
2023/08/27 04:40:31;;;;;;;15.60;5.22;;;;;;;-147.95;100.00;58458.38;5091131;28;20035;-83
2023/08/27 04:43:00;;;;;;;9.82;5.03;;;;;;;-147.95;100.00;58458.38;5089177;28;20025;-83
2023/08/27 04:45:25;;;;;;;18.85;6.80;;;;;;;-147.95;100.00;58458.38;5090632;28;21516;-82
2023/08/27 04:47:51;;;;;;;13.93;7.05;;;;;;;-147.95;100.00;58458.38;5074297;28;20027;-83
2023/08/27 04:50:17;;;;;;;13.23;6.40;;;;;;;-147.95;100.00;58458.38;5084092;28;20491;-82
2023/08/27 04:52:43;;;;;;;12.70;6.00;;;;;;;-147.95;100.00;58458.38;5083697;28;20031;-83
2023/08/27 04:55:08;;;;;;;16.13;6.35;;;;;;;-147.95;100.00;58458.38;5088311;28;20512;-82
2023/08/27 04:57:34;;;;;;;13.57;7.00;;;;;;;-147.95;100.00;58458.38;5069277;28;20054;-84
2023/08/27 05:00:05;;;;;;;11.50;6.03;;;;;;;-147.95;100.00;58458.38;5088512;28;20101;-83
2023/08/27 05:02:30;;;;;;;9.55;5.93;;;;;;;-147.95;100.00;58458.38;5073430;28;20028;-83
2023/08/27 05:04:55;;;;;;;10.93;5.50;;;;;;;-147.95;100.00;58458.38;5083911;28;20044;-83
2023/08/27 05:07:21;;;;;;;10.35;5.45;;;;;;;-147.95;100.00;58458.38;5080876;28;20036;-83
2023/08/27 05:09:46;;;;;;;11.15;5.43;;;;;;;-147.95;100.00;58458.38;5082366;28;20036;-78
2023/08/27 05:12:12;;;;;;;11.13;5.43;;;;;;;-147.95;100.00;58458.38;5090266;28;20056;-78
2023/08/27 05:14:37;;;;;;;10.43;5.57;;;;;;;-147.95;100.00;58458.38;5083963;28;20055;-78
2023/08/27 05:17:03;;;;;;;15.15;6.15;;;;;;;-147.95;100.00;58458.38;5066957;28;20043;-78
2023/08/27 05:19:28;;;;;;;10.95;6.22;;;;;;;-147.95;100.00;58458.38;5086292;28;20041;-78
2023/08/27 05:21:54;;;;;;;12.35;5.95;;;;;;;-147.95;100.00;58458.38;5053276;28;20524;-77
2023/08/27 05:24:19;;;;;;;10.18;5.88;;;;;;;-147.95;100.00;58458.38;5089992;28;20032;-78
2023/08/27 05:26:45;;;;;;;11.00;6.10;;;;;;;-147.95;100.00;58458.38;5089859;28;20486;-78
2023/08/27 05:29:12;;;;;;;11.65;6.15;;;;;;;-147.95;100.00;58458.38;5089438;28;20039;-78
2023/08/27 05:31:37;;;;;;;13.07;6.03;;;;;;;-147.95;100.00;58458.38;5071323;28;21289;-78
2023/08/27 05:34:02;;;;;;;11.32;6.38;;;;;;;-147.95;100.00;58458.38;5072889;28;20035;-77
2023/08/27 05:36:29;;;;;;;11.10;6.13;;;;;;;-147.95;100.00;58458.38;5087481;28;21944;-76
2023/08/27 05:38:54;;;;;;;10.98;6.35;;;;;;;-147.95;100.00;58458.38;5071490;28;20036;-77
2023/08/27 05:41:21;;;;;;;12.98;6.60;;;;;;;-147.95;100.00;58458.38;5053261;28;20032;-77
2023/08/27 05:43:48;;;;;;;10.38;5.78;;;;;;;-147.95;100.00;58458.38;5089606;28;20032;-77
2023/08/27 05:46:15;;;;;;;10.93;6.18;;;;;;;-147.95;100.00;58458.38;5087878;28;20031;-77
2023/08/27 05:48:41;;;;;;;14.50;6.35;;;;;;;-147.95;100.00;58458.38;5068976;28;20414;-78
2023/08/27 05:51:07;;;;;;;12.95;6.57;;;;;;;-147.95;100.00;58458.38;5070496;28;20471;-78
2023/08/27 05:53:32;;;;;;;14.30;6.88;;;;;;;-147.95;100.00;58458.38;5082101;28;20059;-77
2023/08/27 05:55:58;;;;;;;13.75;6.70;;;;;;;-147.95;100.00;58458.38;5093388;28;20028;-78
2023/08/27 05:58:23;;;;;;;9.55;7.15;;;;;;;-147.95;100.00;58458.38;5085065;28;20134;-78
2023/08/27 06:00:56;;;;;;;16.63;7.43;;;;;;;-147.95;100.00;58458.38;5051731;28;20028;-78
2023/08/27 06:03:23;;;;;;;17.45;12.52;;;;;;;-147.95;100.00;58458.38;5080262;28;20031;-77
2023/08/27 06:05:48;;;;;;;13.68;9.43;;;;;;;-147.95;100.00;58458.38;5062170;28;20032;-78
2023/08/27 06:08:14;;;;;;;11.55;7.32;;;;;;;-147.95;100.00;58458.38;5087161;28;20028;-78
2023/08/27 06:10:40;;;;;;;11.63;6.60;;;;;;;-147.95;100.00;58458.38;5086497;28;20459;-78
2023/08/27 06:13:05;;;;;;;10.27;6.55;;;;;;;-147.95;100.00;58458.38;5063305;28;20639;-78
2023/08/27 06:15:32;;;;;;;9.88;6.40;;;;;;;-147.95;100.00;58458.38;5084423;28;20783;-78
2023/08/27 06:18:02;;;;;;;15.38;6.63;;;;;;;-147.95;100.00;58458.38;5085460;28;20406;-78
2023/08/27 06:20:30;;;;;;;10.07;5.95;;;;;;;-147.95;100.00;58458.38;5087119;28;20502;-83
2023/08/27 06:22:56;;;;;;;7.53;5.20;;;;;;;-147.95;100.00;58458.38;5089116;28;20498;-81
2023/08/27 06:25:22;;;;;;;8.57;5.10;;;;;;;-147.95;100.00;58458.38;5078083;28;20036;-82
2023/08/27 06:27:48;;;;;;;7.25;5.07;;;;;;;-147.95;100.00;58458.38;5077192;28;20032;-81
2023/08/27 06:30:14;;;;;;;7.05;5.55;;;;;;;-147.95;100.00;58458.38;5076800;28;20138;-81
2023/08/27 06:32:40;;;;;;;9.02;5.47;;;;;;;-147.95;100.00;58458.38;5083503;28;20024;-82
2023/08/27 06:35:07;;;;;;;10.25;5.82;;;;;;;-147.95;100.00;58458.38;5081262;28;20506;-81
2023/08/27 06:37:35;;;;;;;8.98;5.43;;;;;;;-147.95;100.00;58458.38;5079312;28;20031;-81
2023/08/27 06:40:00;;;;;;;8.50;5.20;;;;;;;-147.95;100.00;58458.38;5077461;28;20026;-82
2023/08/27 06:42:25;;;;;;;8.85;4.75;;;;;;;-147.95;100.00;58458.38;5081150;28;20119;-82
2023/08/27 06:44:51;;;;;;;8.40;4.50;;;;;;;-147.95;100.00;58458.38;5083835;28;20040;-83
2023/08/27 06:47:17;;;;;;;10.48;4.63;;;;;;;-147.95;100.00;58458.38;5067240;28;20048;-83
2023/08/27 06:49:42;;;;;;;8.63;4.07;;;;;;;-147.95;100.00;58458.38;5082334;28;20093;-83
2023/08/27 06:52:09;;;;;;;11.63;4.93;;;;;;;-147.95;100.00;58458.38;5095017;28;20032;-81
2023/08/27 06:54:34;;;;;;;11.00;4.40;;;;;;;-147.95;100.00;58458.38;5034135;28;1460382;-82
2023/08/27 06:57:00;;;;;;;7.15;4.63;;;;;;;-147.95;100.00;58458.38;5083960;28;20035;-82
2023/08/27 06:59:26;;;;;;;10.18;4.88;;;;;;;-147.95;100.00;58458.38;5078340;28;20622;-82
2023/08/27 07:01:51;;;;;;;5.70;3.70;;;;;;;-147.95;100.00;58458.38;5086716;28;20055;-82
2023/08/27 07:04:17;;;;;;;7.15;3.78;;;;;;;-147.95;100.00;58458.38;5070728;28;20039;-83
2023/08/27 07:06:43;;;;;;;4.60;3.80;;;;;;;-147.95;100.00;58458.38;5082576;28;20024;-83
2023/08/27 07:09:08;;;;;;;4.57;3.53;;;;;;;-147.95;100.00;58458.38;5069561;28;20074;-83
2023/08/27 07:11:34;;;;;;;7.40;3.55;;;;;;;-147.95;100.00;58458.38;5083991;28;20036;-83
2023/08/27 07:13:59;;;;;;;4.53;3.72;;;;;;;-147.95;100.00;58458.38;5070508;28;20032;-83
2023/08/27 07:16:26;;;;;;;8.93;3.90;;;;;;;-147.95;100.00;58458.38;5084287;28;20040;-83
2023/08/27 07:18:54;;;;;;;4.80;3.08;;;;;;;-147.95;100.00;58458.38;5072268;28;20115;-83
2023/08/27 07:21:20;;;;;;;7.72;4.20;;;;;;;-147.95;100.00;58458.38;5084358;28;20060;-82
2023/08/27 07:23:45;;;;;;;5.82;3.17;;;;;;;-147.95;100.00;58458.38;5071804;28;20153;-83
2023/08/27 07:26:11;;;;;;;5.65;3.30;;;;;;;-147.95;100.00;58458.38;5081935;28;20028;-83
2023/08/27 07:28:37;;;;;;;6.82;3.33;;;;;;;-147.95;100.00;58458.38;5070058;28;20444;-83
2023/08/27 07:31:03;;;;;;;5.15;3.78;;;;;;;-147.95;100.00;58458.38;5066408;28;20563;-81
2023/08/27 07:33:28;;;;;;;7.45;3.20;;;;;;;-147.95;100.00;58458.38;5087199;28;20214;-81
2023/08/27 07:35:54;;;;;;;7.57;3.05;;;;;;;-147.95;100.00;58458.38;5080301;28;20029;-81
2023/08/27 07:38:19;;;;;;;7.53;3.33;;;;;;;-147.95;100.00;58458.38;5085581;28;20089;-81
2023/08/27 07:40:46;;;;;;;5.15;3.13;;;;;;;-147.95;100.00;58458.38;5085878;28;20039;-80
2023/08/27 07:43:12;;;;;;;5.20;3.03;;;;;;;-147.95;100.00;58458.38;5080286;28;20043;-81
2023/08/27 07:45:38;;;;;;;6.28;3.28;;;;;;;-147.95;100.00;58458.38;5068099;28;20036;-81
2023/08/27 07:48:04;;;;;;;3.63;2.97;;;;;;;-147.95;100.00;58458.38;5082863;28;20459;-80
2023/08/27 07:50:30;;;;;;;5.75;3.00;;;;;;;-147.95;100.00;58458.38;5080839;28;20170;-79
2023/08/27 07:52:55;;;;;;;8.98;3.40;;;;;;;-147.95;100.00;58458.38;5062623;28;20032;-80
2023/08/27 07:55:22;;;;;;;6.45;3.35;;;;;;;-147.95;100.00;58458.38;5069288;28;20044;-80
2023/08/27 07:57:47;;;;;;;7.30;3.40;;;;;;;-147.95;100.00;58458.38;5070226;28;20032;-80
2023/08/27 08:00:15;;;;;;;5.18;3.35;;;;;;;-147.95;100.00;58458.38;5082098;28;20496;-80
2023/08/27 08:02:41;;;;;;;8.75;3.55;;;;;;;-147.95;100.00;58458.38;5084628;28;20024;-80
2023/08/27 08:05:07;;;;;;;8.57;3.30;;;;;;;-147.95;100.00;58458.38;5087142;28;20046;-80
2023/08/27 08:07:35;;;;;;;5.45;3.30;;;;;;;-147.95;100.00;58458.38;5051071;28;20219;-80
2023/08/27 08:10:02;;;;;;;9.02;3.20;;;;;;;-147.95;100.00;58458.38;5085724;28;20039;-80
2023/08/27 08:12:27;;;;;;;6.85;3.40;;;;;;;-147.95;100.00;58458.38;5083012;28;20756;-80
2023/08/27 08:14:53;;;;;;;6.05;3.05;;;;;;;-147.95;100.00;58458.38;5087200;28;20028;-80
2023/08/27 08:17:18;;;;;;;6.90;2.70;;;;;;;-147.95;100.00;58458.38;5081245;28;20077;-79
2023/08/27 08:19:44;;;;;;;4.57;2.88;;;;;;;-147.95;100.00;58458.38;5081580;28;20032;-79
2023/08/27 08:22:09;;;;;;;7.65;3.55;;;;;;;-147.95;100.00;58458.38;5083950;28;20028;-79
2023/08/27 08:24:35;;;;;;;11.95;4.28;;;;;;;-147.95;100.00;58458.38;5084527;28;20036;-79
2023/08/27 08:27:02;;;;;;;8.80;3.92;;;;;;;-147.95;100.00;58458.38;5087110;28;20045;-79
2023/08/27 08:29:30;;;;;;;6.25;3.55;;;;;;;-147.95;100.00;58458.38;5081754;28;20388;-79
2023/08/27 08:31:57;;;;;;;10.75;3.53;;;;;;;-147.95;100.00;58458.38;5083860;28;20037;-79
2023/08/27 08:34:23;;;;;;;10.68;3.72;;;;;;;-147.95;100.00;58458.38;5083401;28;20024;-79
2023/08/27 08:36:48;;;;;;;9.98;3.63;;;;;;;-147.95;100.00;58458.38;5084242;28;20391;-79
2023/08/27 08:39:14;;;;;;;7.63;3.55;;;;;;;-147.95;100.00;58458.38;5069038;28;20032;-79
2023/08/27 08:41:45;;;;;;;13.15;3.83;;;;;;;-147.95;100.00;58458.38;5084745;28;20032;-79
2023/08/27 08:44:42;;;;;;;9.30;3.92;;;;;;;-147.95;100.00;58458.38;5083571;28;20072;-78
2023/08/27 08:47:11;;;;;;;8.70;3.90;;;;;;;-147.95;100.00;58458.38;5067934;28;20032;-79
2023/08/27 08:49:39;;;;;;;6.50;3.33;;;;;;;-147.95;100.00;58458.38;5087434;28;20809;-78
2023/08/27 08:52:09;;;;;;;10.07;3.75;;;;;;;-147.95;100.00;58458.38;5066179;28;20028;-79
2023/08/27 08:54:37;;;;;;;6.95;3.38;;;;;;;-147.95;100.00;58458.38;5081306;28;20473;-79
2023/08/27 08:57:07;;;;;;;8.63;3.83;;;;;;;-147.95;100.00;58458.38;5065589;28;20032;-79
2023/08/27 08:59:35;;;;;;;11.40;3.53;;;;;;;-147.95;100.00;58458.38;5067184;28;20147;-79
2023/08/27 09:02:01;;;;;;;10.00;2.55;;;;;;;-147.95;100.00;58458.38;5080540;28;20042;-79
2023/08/27 09:04:27;;;;;;;8.15;2.22;;;;;;;-147.95;100.00;58458.38;5080867;28;20032;-79
2023/08/27 09:06:54;;;;;;;8.52;2.50;;;;;;;-147.95;100.00;58458.38;5082892;28;20767;-79
2023/08/27 09:09:23;;;;;;;10.25;2.65;;;;;;;-147.95;100.00;58458.38;5082022;28;20470;-79
2023/08/27 09:11:50;;;;;;;7.93;1.75;;;;;;;-147.95;100.00;58458.38;5082859;28;20028;-78
2023/08/27 09:14:16;;;;;;;15.25;2.03;;;;;;;-147.95;100.00;58458.38;5085413;28;20033;-78
2023/08/27 09:16:41;;;;;;;9.23;1.73;;;;;;;-147.95;100.00;58458.38;5086881;28;20039;-78
2023/08/27 09:19:08;;;;;;;7.03;1.70;;;;;;;-147.95;100.00;58458.38;5088274;28;20047;-79
2023/08/27 09:21:35;;;;;;;2.58;1.20;;;;;;;-147.95;100.00;58458.38;5084823;28;21744;-78
2023/08/27 09:24:01;;;;;;;24.95;3.22;;;;;;;-147.95;100.00;58458.38;5070429;28;20497;-78
2023/08/27 09:26:27;;;;;;;4.47;1.45;;;;;;;-147.95;100.00;58458.38;5086072;28;20036;-78
2023/08/27 09:28:52;;;;;;;7.10;1.17;;;;;;;-147.95;100.00;58458.38;5085362;28;20567;-79
2023/08/27 09:31:37;;;;;;;4.05;1.15;;;;;;;-147.95;100.00;58458.38;5070041;28;20035;-78
2023/08/27 09:34:03;;;;;;;4.88;1.00;;;;;;;-147.95;100.00;58458.38;5089290;28;20036;-79
2023/08/27 09:36:31;;;;;;;3.97;1.00;;;;;;;-147.95;100.00;58458.38;5086704;28;20098;-78
2023/08/27 09:38:56;;;;;;;9.30;1.52;;;;;;;-147.95;100.00;58458.38;5091768;28;20029;-79
2023/08/27 09:41:22;;;;;;;2.40;0.90;;;;;;;-147.95;100.00;58458.38;5081407;28;20051;-78
2023/08/27 09:43:52;;;;;;;5.57;0.93;;;;;;;-147.95;100.00;58458.38;5082612;28;20112;-79
2023/08/27 09:46:18;;;;;;;5.07;1.15;;;;;;;-147.95;100.00;58458.38;5068522;28;20406;-80
2023/08/27 09:48:44;;;;;;;5.88;1.02;;;;;;;-147.95;100.00;58458.38;5073206;28;20028;-81
2023/08/27 09:51:09;;;;;;;4.85;1.10;;;;;;;-147.95;100.00;58458.38;5078204;28;20035;-78
2023/08/27 09:53:35;;;;;;;5.47;1.23;;;;;;;-147.95;100.00;58458.38;5080080;28;20029;-78
2023/08/27 09:56:03;;;;;;;6.68;1.00;;;;;;;-147.95;100.00;58458.38;5086417;28;20062;-78
2023/08/27 09:58:31;;;;;;;4.60;1.05;;;;;;;-147.95;100.00;58458.38;5085537;28;20025;-78
2023/08/27 10:01:00;;;;;;;7.50;1.10;;;;;;;-147.95;100.00;58458.38;5085588;28;20543;-78
2023/08/27 10:03:28;;;;;;;4.57;1.10;;;;;;;-147.95;100.00;58458.38;5089223;28;20141;-78
2023/08/27 10:05:54;;;;;;;5.60;0.80;;;;;;;-147.95;100.00;58458.38;5081528;28;20027;-78
2023/08/27 10:08:19;;;;;;;4.10;1.00;;;;;;;-147.95;100.00;58458.38;5088591;28;20028;-78
2023/08/27 10:10:45;;;;;;;3.47;1.00;;;;;;;-147.95;100.00;58458.38;5083688;28;20060;-78
2023/08/27 10:13:11;;;;;;;6.82;1.10;;;;;;;-147.95;100.00;58458.38;5085293;28;20040;-78
2023/08/27 10:15:37;;;;;;;8.45;1.50;;;;;;;-147.95;100.00;58458.38;5082961;28;20417;-78
2023/08/27 10:18:11;;;;;;;7.30;1.30;;;;;;;-147.95;100.00;58458.38;5092323;28;20024;-78
2023/08/27 10:20:40;;;;;;;5.80;0.90;;;;;;;-147.95;100.00;58458.38;5085836;28;20028;-78
2023/08/27 10:23:05;;;;;;;4.22;1.00;;;;;;;-147.95;100.00;58458.38;5076789;28;20480;-78
2023/08/27 10:25:33;;;;;;;6.68;1.00;;;;;;;-147.95;100.00;58458.38;5084200;28;20028;-78
2023/08/27 10:27:59;;;;;;;3.83;0.80;;;;;;;-147.95;100.00;58458.38;5090891;28;20024;-77
2023/08/27 10:30:25;;;;;;;4.25;0.80;;;;;;;-147.95;100.00;58458.38;5084942;28;20501;-77
2023/08/27 10:32:51;;;;;;;5.57;1.08;;;;;;;-147.95;100.00;58458.38;5065331;28;20063;-82
2023/08/27 10:35:16;;;;;;;3.63;0.80;;;;;;;-147.95;100.00;58458.38;5086280;28;20040;-78
2023/08/27 10:37:48;;;;;;;7.13;1.30;;;;;;;-147.95;100.00;58458.38;5089390;28;20147;-78
2023/08/27 10:40:15;;;;;;;3.05;0.90;;;;;;;-147.95;100.00;58458.38;5089885;28;20016;-79
2023/08/27 10:42:41;;;;;;;3.92;1.30;;;;;;;-147.95;100.00;58458.38;5091634;28;20031;-79
2023/08/27 10:45:19;;;;;;;4.82;1.10;;;;;;;-147.95;100.00;58458.38;5065743;28;20371;-79
2023/08/27 10:48:06;;;;;;;4.85;0.95;;;;;;;-147.95;100.00;58458.38;5087671;28;20085;-79
2023/08/27 10:50:47;;;;;;;6.68;1.10;;;;;;;-147.95;100.00;58458.38;5085246;28;20032;-79
2023/08/27 10:53:13;;;;;;;4.95;1.08;;;;;;;-147.95;100.00;58458.38;5086059;28;20458;-79
2023/08/27 10:55:43;;;;;;;3.72;0.82;;;;;;;-147.95;100.00;58458.38;5094287;28;20043;-79
2023/08/27 10:58:16;;;;;;;3.67;1.00;;;;;;;-147.95;100.00;58458.38;5084490;28;20394;-79
2023/08/27 11:01:13;;;;;;;6.43;1.58;;;;;;;-147.95;100.00;58458.38;5092273;28;20016;-78
2023/08/27 11:04:00;;;;;;;5.88;1.40;;;;;;;-147.95;100.00;58458.38;5082922;28;20020;-79
2023/08/27 11:06:43;;;;;;;6.93;1.50;;;;;;;-147.95;100.00;58458.38;5088066;28;20016;-78